createdAt,value
2022-10-22T00:01:01.180Z,87.29
2022-10-22T00:03:29.182Z,87.36
2022-10-22T00:05:57.191Z,87.23
2022-10-22T00:08:26.615Z,87.42
2022-10-22T00:10:54.591Z,87.30
2022-10-22T00:13:22.735Z,87.06
2022-10-22T00:15:50.743Z,87.38
2022-10-22T00:18:18.709Z,87.23
2022-10-22T00:20:46.705Z,87.16
2022-10-22T00:23:14.914Z,87.19
2022-10-22T00:25:44.264Z,87.17
2022-10-22T00:28:12.584Z,87.51
2022-10-22T00:30:40.587Z,87.20
2022-10-22T00:33:08.572Z,87.55
2022-10-22T00:35:37.012Z,87.58
2022-10-22T00:38:05.443Z,87.49
2022-10-22T00:40:33.444Z,86.98
2022-10-22T00:43:02.790Z,87.13
2022-10-22T00:45:31.160Z,87.14
2022-10-22T00:48:02.726Z,87.07
2022-10-22T00:50:34.448Z,87.48
2022-10-22T00:53:03.471Z,87.30
2022-10-22T00:55:33.632Z,86.77
2022-10-22T00:58:03.438Z,87.24
2022-10-22T01:00:32.038Z,87.34
2022-10-22T01:03:00.426Z,86.89
2022-10-22T01:05:30.197Z,87.39
2022-10-22T01:07:58.294Z,87.30
2022-10-22T01:10:36.083Z,87.71
2022-10-22T01:13:17.604Z,87.21
2022-10-22T01:15:53.965Z,87.37
2022-10-22T01:18:25.516Z,87.57
2022-10-22T01:21:10.698Z,87.78
2022-10-22T01:24:23.031Z,87.48
2022-10-22T01:27:08.887Z,87.85
2022-10-22T01:29:41.865Z,87.71
2022-10-22T01:32:12.586Z,87.48
2022-10-22T01:34:42.654Z,87.71
2022-10-22T01:37:11.948Z,87.42
2022-10-22T01:39:41.371Z,87.66
2022-10-22T01:42:09.384Z,87.32
2022-10-22T01:44:38.730Z,87.41
2022-10-22T01:47:16.385Z,87.69
2022-10-22T01:50:01.562Z,87.79
2022-10-22T01:52:37.542Z,87.50
2022-10-22T01:55:15.910Z,87.39
2022-10-22T01:57:45.355Z,87.54
2022-10-22T02:00:15.935Z,87.69
2022-10-22T02:05:25.113Z,87.60
2022-10-22T02:07:56.997Z,88.03
2022-10-22T02:10:25.864Z,87.88
2022-10-22T02:12:56.443Z,87.76
2022-10-22T02:15:27.890Z,87.86
2022-10-22T02:17:57.300Z,87.66
2022-10-22T02:20:28.899Z,87.66
2022-10-22T02:22:57.894Z,87.59
2022-10-22T02:25:30.067Z,87.74
2022-10-22T02:28:03.142Z,87.92
2022-10-22T02:30:33.975Z,87.64
2022-10-22T02:33:09.822Z,87.86
2022-10-22T02:35:39.419Z,87.49
2022-10-22T02:38:07.550Z,87.68
2022-10-22T02:40:35.813Z,87.94
2022-10-22T02:43:05.763Z,87.76
2022-10-22T02:45:35.526Z,87.63
2022-10-22T02:48:04.003Z,87.85
2022-10-22T02:50:32.039Z,87.93
2022-10-22T02:53:00.037Z,87.76
2022-10-22T02:55:28.078Z,87.78
2022-10-22T02:57:56.063Z,87.88
2022-10-22T03:00:24.041Z,87.79
2022-10-22T03:02:53.374Z,88.04
2022-10-22T03:05:21.381Z,87.94
2022-10-22T03:07:49.379Z,87.94
2022-10-22T03:10:17.372Z,87.91
2022-10-22T03:12:45.358Z,88.03
2022-10-22T03:15:13.383Z,87.67
2022-10-22T03:17:41.768Z,87.70
2022-10-22T03:20:11.668Z,87.63
2022-10-22T03:22:42.056Z,87.88
2022-10-22T03:25:13.001Z,87.73
2022-10-22T03:27:42.238Z,87.79
2022-10-22T03:30:11.529Z,87.87
2022-10-22T03:32:39.503Z,87.89
2022-10-22T03:35:08.047Z,87.66
2022-10-22T03:37:38.149Z,87.70
2022-10-22T03:40:08.369Z,88.00
2022-10-22T03:42:36.453Z,87.65
2022-10-22T03:45:05.123Z,87.89
2022-10-22T03:47:33.132Z,87.71
2022-10-22T03:50:01.394Z,88.03
2022-10-22T03:52:29.452Z,88.06
2022-10-22T03:54:59.356Z,87.74
2022-10-22T03:57:27.426Z,87.78
2022-10-22T03:59:55.400Z,87.88
2022-10-22T04:02:23.441Z,88.13
2022-10-22T04:04:51.398Z,88.10
2022-10-22T04:07:19.385Z,88.32
2022-10-22T04:09:47.374Z,88.42
2022-10-22T04:12:16.781Z,88.15
2022-10-22T04:14:44.790Z,88.39
2022-10-22T04:17:12.755Z,88.25
2022-10-22T04:19:40.840Z,88.74
2022-10-22T04:22:08.821Z,88.75
2022-10-22T04:24:36.980Z,88.77
2022-10-22T04:27:05.126Z,88.46
2022-10-22T04:29:34.488Z,88.48
2022-10-22T04:32:02.513Z,88.51
2022-10-22T04:34:31.362Z,88.42
2022-10-22T04:36:59.374Z,88.45
2022-10-22T04:39:27.468Z,88.56
2022-10-22T04:41:55.494Z,88.30
2022-10-22T04:44:23.532Z,88.48
2022-10-22T04:46:53.123Z,88.49
2022-10-22T04:49:21.292Z,88.46
2022-10-22T04:51:49.243Z,88.43
2022-10-22T04:54:17.388Z,88.05
2022-10-22T04:56:45.380Z,88.09
2022-10-22T04:59:14.012Z,88.10
2022-10-22T05:01:43.532Z,88.28
2022-10-22T05:04:15.403Z,88.34
2022-10-22T05:06:43.976Z,88.31
2022-10-22T05:09:14.014Z,88.12
2022-10-22T05:11:48.273Z,88.38
2022-10-22T05:14:17.749Z,88.19
2022-10-22T05:16:48.236Z,88.20
2022-10-22T05:19:20.520Z,88.28
2022-10-22T05:21:48.484Z,88.56
2022-10-22T05:24:16.516Z,88.39
2022-10-22T05:26:44.526Z,88.42
2022-10-22T05:29:12.545Z,88.45
2022-10-22T05:31:41.081Z,88.14
2022-10-22T05:34:09.058Z,88.19
2022-10-22T05:36:38.577Z,88.49
2022-10-22T05:39:06.946Z,88.52
2022-10-22T05:41:36.678Z,88.45
2022-10-22T05:44:05.532Z,88.47
2022-10-22T05:46:37.044Z,88.58
2022-10-22T05:49:06.763Z,88.55
2022-10-22T05:51:37.135Z,88.22
2022-10-22T05:54:08.644Z,88.54
2022-10-22T05:56:37.602Z,88.41
2022-10-22T05:59:05.634Z,88.28
2022-10-22T06:01:35.912Z,88.39
2022-10-22T06:04:05.191Z,88.48
2022-10-22T06:06:35.309Z,88.54
2022-10-22T06:09:07.977Z,88.56
2022-10-22T06:11:35.990Z,88.36
2022-10-22T06:14:04.061Z,88.60
2022-10-22T06:16:32.632Z,88.26
2022-10-22T06:19:02.016Z,88.67
2022-10-22T06:21:30.734Z,88.37
2022-10-22T06:23:59.550Z,88.23
2022-10-22T06:26:29.640Z,88.64
2022-10-22T06:28:58.251Z,88.38
2022-10-22T06:31:27.222Z,88.38
2022-10-22T06:33:55.525Z,88.42
2022-10-22T06:36:24.894Z,88.31
2022-10-22T06:38:53.573Z,88.40
2022-10-22T06:41:24.371Z,88.70
2022-10-22T06:43:57.591Z,88.38
2022-10-22T06:46:26.720Z,88.54
2022-10-22T06:48:56.854Z,88.70
2022-10-22T06:51:25.090Z,88.49
2022-10-22T06:53:54.104Z,88.40
2022-10-22T06:56:23.765Z,88.75
2022-10-22T06:58:52.414Z,88.92
2022-10-22T07:01:24.222Z,88.80
2022-10-22T07:03:52.562Z,88.60
2022-10-22T07:06:21.163Z,88.49
2022-10-22T07:08:49.342Z,88.73
2022-10-22T07:11:18.840Z,88.63
2022-10-22T07:13:47.580Z,88.95
2022-10-22T07:16:16.398Z,88.93
2022-10-22T07:18:46.388Z,88.67
2022-10-22T07:21:16.562Z,88.84
2022-10-22T07:23:45.100Z,88.68
2022-10-22T07:26:14.204Z,88.74
2022-10-22T07:28:42.671Z,88.52
2022-10-22T07:31:12.497Z,88.53
2022-10-22T07:33:40.928Z,88.85
2022-10-22T07:36:17.409Z,88.70
2022-10-22T07:38:45.987Z,88.51
2022-10-22T07:41:14.387Z,88.39
2022-10-22T07:43:42.670Z,88.78
2022-10-22T07:46:10.689Z,88.46
2022-10-22T07:48:39.090Z,88.29
2022-10-22T07:51:07.215Z,88.44
2022-10-22T07:53:36.659Z,88.32
2022-10-22T07:56:04.940Z,88.34
2022-10-22T07:58:32.988Z,88.38
2022-10-22T08:01:02.222Z,88.42
2022-10-22T08:03:30.584Z,88.73
2022-10-22T08:05:58.828Z,88.72
2022-10-22T08:08:29.760Z,88.63
2022-10-22T08:11:02.142Z,88.45
2022-10-22T08:13:31.174Z,88.39
2022-10-22T08:15:59.833Z,88.47
2022-10-22T08:18:28.400Z,88.65
2022-10-22T08:20:56.460Z,88.77
2022-10-22T08:23:27.519Z,88.34
2022-10-22T08:25:57.342Z,88.29
2022-10-22T08:28:28.540Z,88.77
2022-10-22T08:30:56.826Z,88.68
2022-10-22T08:33:24.883Z,88.41
2022-10-22T08:35:53.375Z,88.45
2022-10-22T08:38:21.658Z,88.32
2022-10-22T08:40:52.855Z,88.25
2022-10-22T08:43:56.687Z,88.51
2022-10-22T08:46:33.540Z,88.41
2022-10-22T08:49:04.343Z,88.18
2022-10-22T08:51:35.461Z,88.46
2022-10-22T08:54:16.360Z,88.10
2022-10-22T08:56:46.387Z,88.42
2022-10-22T08:59:21.250Z,88.34
2022-10-22T09:01:52.552Z,88.36
2022-10-22T09:04:26.218Z,88.19
2022-10-22T09:06:56.444Z,88.49
2022-10-22T09:09:27.770Z,88.37
2022-10-22T09:11:58.444Z,88.34
2022-10-22T09:14:29.898Z,88.29
2022-10-22T09:17:14.506Z,88.48
2022-10-22T09:19:50.260Z,88.52
2022-10-22T09:22:28.350Z,88.25
2022-10-22T09:24:59.785Z,88.30
2022-10-22T09:27:30.752Z,88.12
2022-10-22T09:30:01.764Z,88.27
2022-10-22T09:32:30.070Z,88.28
2022-10-22T09:34:59.505Z,88.32
2022-10-22T09:37:29.829Z,88.17
2022-10-22T09:39:59.588Z,88.00
2022-10-22T09:42:27.575Z,88.26
2022-10-22T09:44:57.869Z,88.17
2022-10-22T09:47:43.492Z,88.04
2022-10-22T09:50:28.711Z,88.04
2022-10-22T09:53:00.807Z,87.88
2022-10-22T09:55:29.312Z,87.63
2022-10-22T09:57:59.337Z,87.93
2022-10-22T10:00:28.469Z,87.52
2022-10-22T10:02:59.313Z,87.57
2022-10-22T10:05:31.156Z,87.51
2022-10-22T10:07:59.430Z,87.54
2022-10-22T10:10:35.694Z,87.22
2022-10-22T10:13:12.659Z,87.42
2022-10-22T10:15:46.412Z,87.39
2022-10-22T10:18:24.879Z,87.12
2022-10-22T10:20:57.963Z,87.19
2022-10-22T10:23:31.896Z,87.05
2022-10-22T10:26:05.769Z,86.87
2022-10-22T10:28:53.531Z,86.95
2022-10-22T10:31:29.187Z,86.58
2022-10-22T10:34:06.013Z,86.05
2022-10-22T10:36:39.322Z,86.07
2022-10-22T10:39:11.613Z,86.05
2022-10-22T10:41:50.031Z,85.57
2022-10-22T10:44:46.812Z,85.77
2022-10-22T10:47:27.038Z,85.49
2022-10-22T10:50:06.064Z,85.00
2022-10-22T10:52:38.977Z,84.78
2022-10-22T10:55:14.997Z,84.65
2022-10-22T10:57:49.691Z,84.68
2022-10-22T11:00:20.720Z,84.34
2022-10-22T11:03:24.519Z,84.25
2022-10-22T11:05:57.939Z,84.23
2022-10-22T11:08:29.631Z,84.16
2022-10-22T11:11:00.836Z,84.41
2022-10-22T11:13:31.861Z,84.51
2022-10-22T11:16:05.790Z,84.41
2022-10-22T11:18:36.803Z,84.28
2022-10-22T11:21:11.934Z,84.21
2022-10-22T11:23:45.231Z,84.02
2022-10-22T11:26:20.538Z,84.03
2022-10-22T11:28:52.281Z,83.77
2022-10-22T11:31:20.931Z,83.64
2022-10-22T11:34:00.545Z,83.33
2022-10-22T11:36:40.143Z,83.53
2022-10-22T11:39:08.234Z,82.98
2022-10-22T11:41:37.153Z,82.86
2022-10-22T11:44:12.674Z,82.91
2022-10-22T11:46:45.404Z,82.31
2022-10-22T11:49:23.385Z,82.33
2022-10-22T11:51:53.481Z,82.04
2022-10-22T11:54:42.346Z,82.02
2022-10-22T11:57:26.993Z,81.73
2022-10-22T11:59:58.854Z,81.76
2022-10-22T12:02:39.640Z,81.38
2022-10-22T12:05:44.219Z,81.52
2022-10-22T12:08:25.168Z,81.76
2022-10-22T12:11:15.595Z,81.48
2022-10-22T12:14:00.270Z,81.17
2022-10-22T12:16:37.719Z,81.01
2022-10-22T12:19:25.541Z,80.96
2022-10-22T12:21:55.627Z,81.20
2022-10-22T12:24:26.795Z,81.29
2022-10-22T12:26:54.783Z,81.59
2022-10-22T12:29:25.593Z,81.61
2022-10-22T12:31:53.948Z,81.81
2022-10-22T12:34:24.704Z,82.02
2022-10-22T12:36:54.912Z,82.04
2022-10-22T12:39:27.193Z,82.21
2022-10-22T12:41:56.044Z,82.44
2022-10-22T12:44:24.211Z,82.60
2022-10-22T12:46:55.999Z,82.82
2022-10-22T12:49:32.923Z,83.10
2022-10-22T12:52:02.619Z,83.23
2022-10-22T12:54:33.104Z,83.39
2022-10-22T12:57:01.660Z,83.30
2022-10-22T12:59:33.884Z,83.53
2022-10-22T13:02:02.698Z,83.27
2022-10-22T13:04:35.943Z,83.49
2022-10-22T13:07:22.276Z,83.62
2022-10-22T13:10:00.480Z,83.45
2022-10-22T13:12:29.523Z,83.33
2022-10-22T13:14:57.543Z,83.33
2022-10-22T13:17:40.154Z,83.25
2022-10-22T13:20:18.866Z,83.27
2022-10-22T13:23:00.186Z,83.31
2022-10-22T13:25:31.281Z,83.29
2022-10-22T13:28:01.817Z,83.28
2022-10-22T13:30:31.863Z,83.43
2022-10-22T13:33:01.161Z,83.46
2022-10-22T13:35:33.119Z,83.68
2022-10-22T13:38:01.468Z,83.57
2022-10-22T13:40:30.849Z,83.63
2022-10-22T13:42:58.863Z,83.53
2022-10-22T13:45:26.844Z,83.71
2022-10-22T13:47:55.529Z,83.63
2022-10-22T13:50:23.520Z,83.40
2022-10-22T13:52:53.782Z,83.73
2022-10-22T13:55:25.719Z,83.54
2022-10-22T13:57:56.218Z,83.69
2022-10-22T14:00:26.759Z,83.56
2022-10-22T14:02:58.396Z,83.41
2022-10-22T14:05:26.638Z,83.65
2022-10-22T14:07:54.665Z,83.75
2022-10-22T14:10:24.774Z,83.42
2022-10-22T14:12:53.906Z,83.79
2022-10-22T14:15:24.920Z,83.80
2022-10-22T14:17:55.332Z,83.85
2022-10-22T14:20:26.617Z,83.71
2022-10-22T14:22:54.938Z,83.77
2022-10-22T14:25:24.867Z,83.91
2022-10-22T14:27:53.010Z,84.05
2022-10-22T14:30:27.033Z,84.05
2022-10-22T14:32:55.118Z,84.10
2022-10-22T14:35:23.764Z,84.18
2022-10-22T14:37:52.377Z,84.12
2022-10-22T14:40:22.042Z,84.26
2022-10-22T14:42:50.273Z,84.54
2022-10-22T14:45:22.005Z,84.43
2022-10-22T14:47:52.167Z,84.49
2022-10-22T14:50:20.374Z,84.52
2022-10-22T14:52:48.408Z,84.46
2022-10-22T14:55:17.487Z,84.65
2022-10-22T14:57:45.829Z,84.59
2022-10-22T15:00:15.985Z,84.79
2022-10-22T15:02:44.459Z,84.90
2022-10-22T15:05:14.590Z,85.09
2022-10-22T15:07:43.035Z,84.94
2022-10-22T15:10:11.464Z,85.22
2022-10-22T15:12:39.457Z,85.41
2022-10-22T15:15:08.385Z,85.48
2022-10-22T15:17:36.430Z,85.45
2022-10-22T15:20:05.555Z,85.32
2022-10-22T15:22:36.098Z,85.38
2022-10-22T15:25:06.326Z,85.75
2022-10-22T15:27:34.980Z,85.78
2022-10-22T15:32:36.138Z,85.84
2022-10-22T15:35:05.776Z,85.87
2022-10-22T15:37:37.752Z,85.86
2022-10-22T15:40:08.075Z,86.17
2022-10-22T15:42:36.158Z,85.91
2022-10-22T15:45:04.281Z,86.27
2022-10-22T15:47:32.297Z,86.22
2022-10-22T15:50:00.281Z,86.28
2022-10-22T15:52:28.276Z,86.50
2022-10-22T15:54:57.723Z,86.55
2022-10-22T15:57:25.699Z,86.40
2022-10-22T15:59:53.707Z,86.48
2022-10-22T16:02:21.707Z,86.79
2022-10-22T16:04:49.681Z,86.92
2022-10-22T16:07:19.869Z,86.97
2022-10-22T16:09:50.511Z,87.01
2022-10-22T16:12:19.885Z,87.01
2022-10-22T16:14:50.572Z,87.15
2022-10-22T16:17:18.642Z,86.95
2022-10-22T16:19:46.652Z,87.27
2022-10-22T16:22:15.701Z,87.32
2022-10-22T16:24:43.741Z,87.08
2022-10-22T16:27:11.774Z,87.06
2022-10-22T16:29:41.990Z,87.02
2022-10-22T16:32:09.965Z,87.06
2022-10-22T16:34:37.949Z,87.06
2022-10-22T16:37:10.138Z,87.19
2022-10-22T16:39:38.514Z,87.21
2022-10-22T16:42:06.797Z,87.18
2022-10-22T16:44:34.813Z,87.14
2022-10-22T16:47:04.223Z,87.36
2022-10-22T16:49:32.221Z,87.22
2022-10-22T16:52:00.218Z,87.32
2022-10-22T16:54:28.348Z,87.37
2022-10-22T16:56:56.367Z,87.65
2022-10-22T16:59:24.359Z,87.69
2022-10-22T17:01:52.386Z,87.67
2022-10-22T17:04:22.452Z,87.70
2022-10-22T17:06:50.453Z,87.58
2022-10-22T17:09:18.562Z,87.82
2022-10-22T17:11:47.382Z,87.93
2022-10-22T17:14:15.385Z,87.65
2022-10-22T17:16:43.427Z,87.94
2022-10-22T17:19:15.699Z,87.68
2022-10-22T17:21:45.163Z,87.75
2022-10-22T17:24:13.231Z,87.71
2022-10-22T17:26:41.360Z,87.99
2022-10-22T17:29:09.354Z,87.84
2022-10-22T17:31:39.091Z,87.84
2022-10-22T17:34:09.591Z,88.11
2022-10-22T17:36:38.266Z,88.23
2022-10-22T17:39:09.056Z,88.18
2022-10-22T17:41:38.303Z,88.21
2022-10-22T17:44:09.019Z,87.98
2022-10-22T17:46:37.580Z,87.87
2022-10-22T17:49:07.949Z,88.10
2022-10-22T17:51:35.995Z,88.14
2022-10-22T17:54:07.364Z,88.24
2022-10-22T17:56:40.237Z,88.24
2022-10-22T17:59:09.013Z,88.34
2022-10-22T18:01:43.367Z,88.27
2022-10-22T18:04:12.523Z,88.09
2022-10-22T18:06:40.738Z,88.20
2022-10-22T18:09:11.491Z,88.11
2022-10-22T18:11:42.778Z,88.31
2022-10-22T18:14:10.923Z,88.40
2022-10-22T18:16:38.901Z,88.12
2022-10-22T18:19:06.919Z,88.20
2022-10-22T18:21:34.911Z,88.28
2022-10-22T18:24:02.914Z,88.58
2022-10-22T18:26:30.873Z,88.78
2022-10-22T18:29:00.232Z,88.43
2022-10-22T18:31:30.348Z,88.65
2022-10-22T18:33:58.853Z,88.48
2022-10-22T18:36:27.966Z,88.66
2022-10-22T18:38:57.719Z,88.73
2022-10-22T18:41:26.306Z,88.55
2022-10-22T18:43:55.279Z,88.88
2022-10-22T18:46:25.197Z,88.74
2022-10-22T18:48:53.799Z,88.61
2022-10-22T18:51:22.084Z,88.88
2022-10-22T18:54:04.502Z,88.44
2022-10-22T18:56:40.547Z,88.51
2022-10-22T18:59:14.347Z,88.54
2022-10-22T19:01:43.707Z,88.81
2022-10-22T19:04:12.723Z,88.54
2022-10-22T19:06:45.078Z,88.55
2022-10-22T19:09:14.383Z,88.94
2022-10-22T19:11:43.093Z,88.98
2022-10-22T19:14:11.257Z,88.92
2022-10-22T19:16:39.343Z,88.65
2022-10-22T19:19:08.993Z,88.82
2022-10-22T19:21:37.793Z,88.78
2022-10-22T19:24:06.293Z,88.83
2022-10-22T19:26:34.767Z,88.89
2022-10-22T19:29:03.135Z,88.85
2022-10-22T19:31:32.217Z,88.60
2022-10-22T19:34:00.911Z,88.79
2022-10-22T19:36:32.611Z,88.77
2022-10-22T19:39:01.744Z,88.86
2022-10-22T19:41:31.123Z,88.83
2022-10-22T19:44:00.331Z,88.91
2022-10-22T19:46:29.830Z,89.19
2022-10-22T19:48:57.852Z,88.98
2022-10-22T19:51:27.695Z,88.98
2022-10-22T19:54:00.160Z,89.07
2022-10-22T19:56:28.723Z,89.24
2022-10-22T19:58:56.701Z,89.13
2022-10-22T20:01:24.760Z,89.40
2022-10-22T20:03:53.351Z,88.99
2022-10-22T20:06:21.828Z,88.94
2022-10-22T20:08:52.482Z,88.89
2022-10-22T20:11:26.844Z,88.97
2022-10-22T20:13:54.971Z,89.20
2022-10-22T20:16:25.974Z,88.85
2022-10-22T20:18:54.055Z,89.05
2022-10-22T20:21:22.632Z,89.26
2022-10-22T20:23:54.102Z,88.92
2022-10-22T20:26:24.532Z,88.96
2022-10-22T20:28:53.159Z,89.07
2022-10-22T20:31:22.235Z,89.22
2022-10-22T20:33:51.407Z,89.20
2022-10-22T20:36:21.143Z,89.16
2022-10-22T20:38:49.505Z,89.42
2022-10-22T20:41:19.579Z,89.17
2022-10-22T20:43:50.399Z,89.44
2022-10-22T20:46:20.016Z,89.71
2022-10-22T20:48:48.270Z,89.70
2022-10-22T20:51:16.257Z,89.56
2022-10-22T20:53:44.254Z,89.63
2022-10-22T20:56:12.665Z,89.65
2022-10-22T20:58:46.228Z,89.86
2022-10-22T21:01:21.293Z,89.56
2022-10-22T21:03:50.177Z,89.74
2022-10-22T21:06:20.901Z,89.72
2022-10-22T21:08:49.090Z,89.39
2022-10-22T21:11:17.191Z,89.45
2022-10-22T21:13:45.316Z,89.45
2022-10-22T21:16:16.414Z,89.54
2022-10-22T21:18:44.405Z,89.22
2022-10-22T21:21:13.005Z,89.17
2022-10-22T21:23:41.328Z,89.43
2022-10-22T21:26:09.382Z,89.12
2022-10-22T21:28:38.063Z,89.13
2022-10-22T21:31:09.848Z,89.06
2022-10-22T21:33:40.367Z,89.20
2022-10-22T21:36:09.886Z,89.40
2022-10-22T21:38:38.566Z,88.99
2022-10-22T21:41:07.423Z,89.27
2022-10-22T21:43:37.276Z,89.21
2022-10-22T21:46:08.148Z,89.31
2022-10-22T21:48:36.923Z,89.22
2022-10-22T21:51:10.867Z,89.25
2022-10-22T21:53:39.103Z,89.14
2022-10-22T21:56:08.263Z,89.01
2022-10-22T21:58:36.576Z,89.42
2022-10-22T22:01:04.994Z,89.29
2022-10-22T22:03:33.056Z,89.38
2022-10-22T22:06:02.428Z,89.17
2022-10-22T22:08:32.472Z,89.51
2022-10-22T22:11:05.229Z,89.38
2022-10-22T22:13:33.658Z,89.60
2022-10-22T22:16:02.687Z,89.55
2022-10-22T22:21:15.751Z,89.65
2022-10-22T22:23:46.330Z,89.45
2022-10-22T22:26:15.647Z,89.59
2022-10-22T22:28:43.616Z,89.87
2022-10-22T22:31:16.480Z,89.98
2022-10-22T22:33:44.562Z,89.84
2022-10-22T22:36:14.098Z,90.12
2022-10-22T22:38:42.564Z,90.11
2022-10-22T22:41:10.694Z,90.13
2022-10-22T22:43:38.816Z,89.76
2022-10-22T22:46:08.530Z,89.96
2022-10-22T22:48:36.544Z,89.88
2022-10-22T22:51:05.108Z,89.91
2022-10-22T22:53:34.782Z,90.09
2022-10-22T22:56:10.040Z,90.10
2022-10-22T22:58:40.444Z,90.03
2022-10-22T23:01:16.917Z,89.71
2022-10-22T23:03:46.561Z,89.89
2022-10-22T23:06:15.469Z,90.26
2022-10-22T23:08:45.287Z,90.04
2022-10-22T23:11:14.403Z,90.25
2022-10-22T23:13:43.584Z,90.14
2022-10-22T23:16:15.295Z,90.33
2022-10-22T23:18:43.699Z,89.92
2022-10-22T23:21:14.254Z,90.27
2022-10-22T23:23:45.787Z,89.94
2022-10-22T23:26:14.616Z,90.29
2022-10-22T23:28:42.679Z,90.03
2022-10-22T23:31:13.699Z,89.90
2022-10-22T23:33:41.734Z,90.20
2022-10-22T23:36:10.277Z,90.27
2022-10-22T23:38:39.715Z,90.27
2022-10-22T23:41:09.640Z,90.17
2022-10-22T23:43:38.082Z,90.05
2022-10-22T23:46:07.717Z,90.04
2022-10-22T23:48:36.029Z,90.07
2022-10-22T23:51:07.444Z,90.29
2022-10-22T23:53:35.471Z,90.01
2022-10-22T23:56:08.880Z,90.35
2022-10-22T23:58:38.660Z,90.32
